Terminal Aerodrome Forecast
Issued by NWS

Home | Current Version | Previous Version | Graphics & Text | Print | Product List | Glossary On
Versions: 1 2 3 4 5 6 7 8 9 10 11 12 13 14 15 16 17
000
FTUS43 KGRB 212320
TAFATW
TAF
KATW 212320Z 2200/2224 33012G20KT P6SM -SHRA SCT060 BKN100
     FM220100 01009G15KT P6SM BKN100
     FM220200 02007KT P6SM SCT100
     FM220800 36003KT P6SM SKC
     FM221500 02007KT P6SM SKC=

USA.gov is the U.S. government's official web portal to all federal, state and local government web resources and services.